Time;durP1;ratioP1;P1;durP2;ratioP2;P2;SDS_P1;SDS_P2;PMS_P1;PMS_P2;Temp;Humidity;BMP_temperature;BMP_pressure;BME280_temperature;BME280_humidity;BME280_pressure;Samples;Min_cycle;Max_cycle;Signal;HPM_P1;HPM_P2
2021/12/02 00:00:58;;;;;;;5.05;1.05;;;2.90;99.90;;;;;;5098330;27;20047;-78
2021/12/02 00:03:25;;;;;;;6.38;0.73;;;2.90;99.90;;;;;;5114822;28;20142;-78
2021/12/02 00:05:51;;;;;;;7.03;1.50;;;2.80;99.90;;;;;;5115990;27;20047;-78
2021/12/02 00:08:17;;;;;;;11.20;1.20;;;2.80;99.90;;;;;;5120288;28;20126;-78
2021/12/02 00:10:44;;;;;;;3.95;1.42;;;2.70;99.90;;;;;;5114925;28;20138;-78
2021/12/02 00:13:11;;;;;;;7.63;2.03;;;2.70;99.90;;;;;;5114457;28;20039;-78
2021/12/02 00:21:05;;;;;;;5.93;1.20;;;2.60;99.90;;;;;;5114335;28;20095;-78
2021/12/02 00:23:38;;;;;;;12.82;1.50;;;2.50;99.90;;;;;;5097969;28;20097;-78
2021/12/02 00:26:11;;;;;;;7.28;1.40;;;2.40;99.90;;;;;;5113913;28;20050;-78
2021/12/02 00:28:39;;;;;;;7.82;1.17;;;2.40;99.90;;;;;;5132254;28;20073;-82
2021/12/02 00:31:05;;;;;;;10.05;1.10;;;2.40;99.90;;;;;;5097167;28;20046;-83
2021/12/02 00:33:33;;;;;;;4.50;0.90;;;2.40;99.90;;;;;;5130843;27;20051;-78
2021/12/02 00:36:00;;;;;;;6.68;0.90;;;2.40;99.90;;;;;;5136020;27;20063;-78
2021/12/02 00:38:27;;;;;;;5.30;0.68;;;2.30;99.90;;;;;;5116811;27;20471;-81
2021/12/02 00:40:53;;;;;;;5.32;0.95;;;2.30;99.90;;;;;;5100262;27;20068;-77
2021/12/02 00:43:19;;;;;;;5.80;0.77;;;2.30;99.90;;;;;;5135039;27;20051;-79
2021/12/02 00:45:46;;;;;;;5.45;0.88;;;2.20;99.90;;;;;;5117137;27;20126;-82
2021/12/02 00:48:13;;;;;;;9.25;0.80;;;2.20;99.90;;;;;;5117492;27;20077;-78
2021/12/02 00:50:48;;;;;;;5.18;1.00;;;2.20;99.90;;;;;;5117468;27;20085;-78
2021/12/02 00:53:19;;;;;;;10.10;0.93;;;2.20;99.90;;;;;;5108531;27;20608;-77
2021/12/02 00:55:45;;;;;;;9.20;1.80;;;2.20;99.90;;;;;;5118176;27;20074;-78
2021/12/02 00:58:18;;;;;;;9.50;2.05;;;2.20;99.90;;;;;;5137203;27;20456;-86
2021/12/02 01:00:48;;;;;;;6.10;1.05;;;2.20;99.90;;;;;;5125577;27;20058;-78
2021/12/02 01:03:14;;;;;;;9.55;1.00;;;2.20;99.90;;;;;;5116014;27;20058;-78
2021/12/02 01:05:41;;;;;;;4.32;0.77;;;2.30;99.90;;;;;;5134930;27;20043;-77
2021/12/02 01:08:08;;;;;;;5.63;0.70;;;2.40;99.90;;;;;;5123231;27;20513;-82
2021/12/02 01:10:35;;;;;;;7.00;0.80;;;2.50;99.90;;;;;;5135459;27;20161;-78
2021/12/02 01:13:01;;;;;;;8.15;0.93;;;2.50;99.90;;;;;;5137377;27;20039;-77
2021/12/02 01:15:26;;;;;;;4.72;0.80;;;2.50;99.90;;;;;;5137324;27;20051;-81
2021/12/02 01:17:53;;;;;;;4.35;0.93;;;2.50;99.90;;;;;;5137536;27;20487;-79
2021/12/02 01:20:19;;;;;;;7.90;2.08;;;2.50;99.90;;;;;;5120265;27;20491;-78
2021/12/02 01:22:47;;;;;;;8.88;0.90;;;2.50;99.90;;;;;;5138041;27;20043;-81
2021/12/02 01:25:15;;;;;;;10.57;0.88;;;2.50;99.90;;;;;;5138050;27;20046;-85
2021/12/02 01:27:46;;;;;;;8.75;1.60;;;2.50;99.90;;;;;;5152319;27;20039;-77
2021/12/02 01:30:12;;;;;;;10.63;0.90;;;2.40;99.90;;;;;;5117703;27;20042;-80
2021/12/02 01:32:39;;;;;;;7.60;0.90;;;2.50;99.90;;;;;;5117467;27;20047;-78
2021/12/02 01:35:06;;;;;;;7.53;1.08;;;2.40;99.90;;;;;;5135733;27;20075;-78
2021/12/02 01:37:32;;;;;;;5.70;0.98;;;2.40;99.90;;;;;;5117222;27;20047;-80
2021/12/02 01:39:59;;;;;;;5.80;0.95;;;2.50;99.90;;;;;;5101670;27;20387;-78
2021/12/02 01:42:27;;;;;;;5.72;1.00;;;2.50;99.90;;;;;;5137577;27;20035;-78
2021/12/02 01:44:58;;;;;;;6.55;0.80;;;2.60;99.90;;;;;;5137313;27;20053;-78
2021/12/02 01:47:28;;;;;;;3.08;0.90;;;2.60;99.90;;;;;;5137593;27;20510;-78
2021/12/02 01:49:58;;;;;;;5.85;0.90;;;2.70;99.90;;;;;;5137971;27;20155;-78
2021/12/02 01:52:32;;;;;;;9.30;0.90;;;2.80;99.90;;;;;;5103111;27;20203;-78
2021/12/02 01:55:11;;;;;;;3.70;0.85;;;2.80;99.90;;;;;;5137738;27;20081;-78
2021/12/02 01:57:41;;;;;;;5.97;0.75;;;2.90;99.90;;;;;;5153225;27;20600;-78
2021/12/02 02:00:19;;;;;;;5.40;0.73;;;2.80;99.90;;;;;;5100292;27;20047;-78
2021/12/02 02:02:45;;;;;;;5.03;1.33;;;2.90;99.90;;;;;;5117014;27;20051;-78
2021/12/02 02:05:14;;;;;;;6.38;0.57;;;2.90;99.90;;;;;;5155081;27;20089;-77
2021/12/02 02:07:58;;;;;;;2.92;0.40;;;2.80;99.90;;;;;;5137088;27;20055;-78
2021/12/02 02:10:25;;;;;;;1.65;0.40;;;2.80;99.90;;;;;;5137026;27;20039;-78
2021/12/02 02:12:53;;;;;;;5.43;0.77;;;2.70;99.90;;;;;;5102915;27;20053;-78
2021/12/02 02:15:19;;;;;;;5.30;0.90;;;2.70;99.90;;;;;;5117992;27;20051;-82
2021/12/02 02:17:55;;;;;;;4.70;0.60;;;2.50;99.90;;;;;;5134348;27;20035;-78
2021/12/02 02:20:22;;;;;;;;;;;2.40;99.90;;;;;;5136454;27;20050;-86
2021/12/02 02:22:48;;;;;;;2.55;0.70;;;2.30;99.90;;;;;;5141129;27;20010;-78
2021/12/02 02:25:15;;;;;;;4.55;0.60;;;2.30;99.90;;;;;;5116555;27;20126;-78
2021/12/02 02:27:41;;;;;;;8.43;0.77;;;2.20;99.90;;;;;;5115887;27;20043;-77
2021/12/02 02:30:09;;;;;;;10.07;1.20;;;2.20;99.90;;;;;;5116066;27;20047;-78
2021/12/02 02:32:36;;;;;;;6.70;0.80;;;2.20;99.90;;;;;;5098954;27;20157;-78
2021/12/02 02:35:03;;;;;;;8.07;1.02;;;2.20;99.90;;;;;;5134530;27;20140;-78
2021/12/02 02:37:33;;;;;;;3.97;0.80;;;2.20;99.90;;;;;;5115463;27;20046;-78
2021/12/02 02:40:01;;;;;;;4.63;0.50;;;2.10;99.90;;;;;;5134299;27;20047;-78
2021/12/02 02:42:27;;;;;;;7.25;0.70;;;2.10;99.90;;;;;;5098682;27;20047;-78
2021/12/02 02:44:54;;;;;;;4.85;0.50;;;2.10;99.90;;;;;;5133785;27;20074;-78
2021/12/02 02:47:24;;;;;;;3.42;0.50;;;2.10;99.90;;;;;;5115581;27;20043;-78
2021/12/02 02:49:50;;;;;;;3.90;0.65;;;2.10;99.90;;;;;;5116022;27;20050;-79
2021/12/02 02:52:15;;;;;;;3.85;0.55;;;2.10;99.90;;;;;;5103004;27;20043;-79
2021/12/02 02:54:42;;;;;;;6.35;1.25;;;2.10;99.90;;;;;;5135875;27;20402;-78
2021/12/02 02:57:09;;;;;;;5.07;0.95;;;2.10;99.90;;;;;;5134899;27;20062;-78
2021/12/02 03:03:13;;;;;;;3.35;0.70;;;2.00;99.90;;;;;;5136111;27;20050;-78
2021/12/02 03:07:48;;;;;;;4.55;0.77;;;1.90;99.90;;;;;;5135992;27;20086;-78
2021/12/02 03:10:24;;;;;;;3.53;0.57;;;1.80;99.90;;;;;;5136494;27;20054;-77
2021/12/02 03:17:47;;;;;;;5.15;0.50;;;1.80;99.90;;;;;;5135325;27;20049;-78
2021/12/02 03:20:14;;;;;;;3.85;0.60;;;1.70;99.90;;;;;;5118890;27;20403;-78
2021/12/02 03:22:40;;;;;;;3.78;0.55;;;1.70;99.90;;;;;;5109298;27;20429;-78
2021/12/02 03:25:08;;;;;;;2.28;0.50;;;1.70;99.90;;;;;;5115285;27;20039;-78
2021/12/02 03:27:34;;;;;;;4.30;0.50;;;1.70;99.90;;;;;;5097941;27;20082;-77
2021/12/02 03:30:00;;;;;;;5.80;0.98;;;1.70;99.90;;;;;;5115113;27;20074;-78
2021/12/02 03:32:26;;;;;;;6.75;0.60;;;1.70;99.90;;;;;;5130462;27;20054;-78
2021/12/02 03:34:53;;;;;;;4.32;0.70;;;1.80;99.90;;;;;;5153595;27;20039;-79
2021/12/02 03:37:19;;;;;;;3.92;0.65;;;1.80;99.90;;;;;;5134903;27;20039;-81
2021/12/02 03:39:46;;;;;;;6.05;0.50;;;1.90;99.90;;;;;;5134718;27;20042;-78
2021/12/02 03:42:12;;;;;;;6.07;1.17;;;1.90;99.90;;;;;;5118754;27;20050;-80
2021/12/02 03:44:38;;;;;;;4.82;0.50;;;2.00;99.90;;;;;;5098036;27;20068;-77
2021/12/02 03:47:03;;;;;;;3.70;0.75;;;2.00;99.90;;;;;;5129780;27;20483;-78
2021/12/02 03:49:29;;;;;;;5.03;1.02;;;2.10;99.90;;;;;;5118047;27;20042;-84
2021/12/02 03:51:55;;;;;;;2.30;0.50;;;2.10;99.90;;;;;;5153560;27;20547;-78
2021/12/02 03:54:22;;;;;;;4.10;0.70;;;2.10;99.90;;;;;;5120385;27;20051;-78
2021/12/02 03:56:48;;;;;;;6.38;0.80;;;2.10;99.90;;;;;;5114055;28;20563;-79
2021/12/02 03:59:14;;;;;;;2.80;0.50;;;2.10;99.90;;;;;;5114952;28;20134;-78
2021/12/02 04:01:39;;;;;;;3.28;0.60;;;2.10;99.90;;;;;;5097834;28;20078;-78
2021/12/02 04:04:05;;;;;;;2.95;0.73;;;2.00;99.90;;;;;;5114727;28;20081;-78
2021/12/02 04:06:32;;;;;;;1.20;0.50;;;1.90;99.90;;;;;;5132879;27;20509;-92
2021/12/02 04:09:20;;;;;;;4.15;0.65;;;1.80;99.90;;;;;;5134657;27;20549;-80
2021/12/02 04:14:18;;;;;;;4.18;0.70;;;1.70;99.90;;;;;;5135120;27;20055;-79
2021/12/02 04:16:52;;;;;;;5.88;0.60;;;1.70;99.90;;;;;;5114217;28;20054;-83
2021/12/02 04:19:19;;;;;;;4.13;0.47;;;1.50;99.90;;;;;;5114647;28;20039;-82
2021/12/02 04:21:45;;;;;;;6.75;1.17;;;1.50;99.90;;;;;;5097477;28;20051;-83
2021/12/02 04:24:11;;;;;;;3.97;0.60;;;1.50;99.90;;;;;;5114470;28;20061;-77
2021/12/02 04:26:39;;;;;;;5.25;0.65;;;1.50;99.90;;;;;;5114230;28;20047;-79
2021/12/02 04:29:05;;;;;;;5.50;1.27;;;1.30;99.90;;;;;;5132429;28;20647;-78
2021/12/02 04:31:30;;;;;;;2.13;0.60;;;1.30;99.90;;;;;;5132530;28;20047;-78
2021/12/02 04:33:56;;;;;;;4.55;0.60;;;1.30;99.90;;;;;;5132245;28;20500;-78
2021/12/02 04:36:21;;;;;;;4.70;0.70;;;1.30;99.90;;;;;;5114143;28;20168;-78
2021/12/02 04:38:47;;;;;;;3.90;0.45;;;1.30;99.90;;;;;;5123436;27;20122;-79
2021/12/02 04:41:15;;;;;;;3.28;0.82;;;1.20;99.90;;;;;;5117745;27;20050;-80
2021/12/02 04:43:41;;;;;;;3.38;0.80;;;1.20;99.90;;;;;;5113993;27;20123;-78
2021/12/02 04:46:07;;;;;;;6.32;1.10;;;1.20;99.90;;;;;;5114310;28;20104;-80
2021/12/02 04:48:33;;;;;;;2.60;0.63;;;1.30;99.90;;;;;;5132642;28;20124;-78
2021/12/02 04:50:58;;;;;;;3.78;0.80;;;1.40;99.90;;;;;;5114052;28;20039;-79
2021/12/02 04:53:24;;;;;;;4.93;0.85;;;1.40;99.90;;;;;;5097184;28;20078;-79
2021/12/02 04:55:50;;;;;;;4.18;0.90;;;1.50;99.90;;;;;;5113435;28;20481;-78
2021/12/02 04:58:15;;;;;;;5.13;1.02;;;1.40;99.90;;;;;;5113926;28;20460;-78
2021/12/02 05:00:41;;;;;;;4.20;0.82;;;1.40;99.90;;;;;;5114196;28;20483;-78
2021/12/02 05:03:07;;;;;;;2.95;0.82;;;1.40;99.90;;;;;;5097284;28;20083;-78
2021/12/02 05:05:33;;;;;;;5.78;0.80;;;1.40;99.90;;;;;;5114816;28;20043;-78
2021/12/02 05:08:00;;;;;;;2.88;0.60;;;1.40;99.90;;;;;;5113871;28;20075;-79
2021/12/02 05:10:27;;;;;;;3.50;0.65;;;1.40;99.90;;;;;;5140439;27;20042;-78
2021/12/02 05:12:52;;;;;;;6.00;0.70;;;1.30;99.90;;;;;;5143516;27;20043;-78
2021/12/02 05:15:18;;;;;;;4.85;0.60;;;1.30;99.90;;;;;;5097342;28;20051;-81
2021/12/02 05:17:44;;;;;;;3.00;0.68;;;1.20;99.90;;;;;;5132550;27;20118;-78
2021/12/02 05:20:10;;;;;;;3.03;0.60;;;1.30;99.90;;;;;;5153065;27;20134;-78
2021/12/02 05:22:36;;;;;;;6.30;0.85;;;1.30;99.90;;;;;;5120336;27;20130;-78
2021/12/02 05:25:03;;;;;;;1.92;0.70;;;1.30;99.90;;;;;;5134212;27;20427;-78
2021/12/02 05:27:29;;;;;;;3.15;0.70;;;1.40;99.90;;;;;;5100650;27;20050;-78
2021/12/02 05:29:55;;;;;;;2.83;0.60;;;1.40;99.90;;;;;;5117485;27;20055;-78
2021/12/02 05:32:21;;;;;;;3.35;0.60;;;1.50;99.90;;;;;;5135637;27;20047;-78
2021/12/02 05:34:48;;;;;;;1.60;0.68;;;1.40;99.90;;;;;;5135350;27;20074;-78
2021/12/02 05:37:14;;;;;;;4.78;1.10;;;1.30;99.90;;;;;;5136879;27;20106;-78
2021/12/02 05:39:40;;;;;;;2.90;0.70;;;1.30;99.90;;;;;;5137914;27;20049;-78
2021/12/02 05:42:06;;;;;;;2.40;0.52;;;1.40;99.90;;;;;;5155676;27;20507;-79
2021/12/02 05:44:32;;;;;;;2.03;0.75;;;1.40;99.90;;;;;;5116784;27;20054;-78
2021/12/02 05:46:58;;;;;;;2.50;0.60;;;1.50;99.90;;;;;;5116523;27;20039;-78
2021/12/02 05:49:23;;;;;;;5.13;0.63;;;1.50;99.90;;;;;;5100025;27;20518;-78
2021/12/02 05:51:49;;;;;;;2.42;0.50;;;1.50;99.90;;;;;;5116699;27;20103;-78
2021/12/02 05:54:15;;;;;;;0.93;0.40;;;1.60;99.90;;;;;;5100700;27;20095;-78
2021/12/02 05:56:40;;;;;;;4.15;0.90;;;1.60;99.90;;;;;;5117491;27;20062;-78
2021/12/02 05:59:07;;;;;;;4.55;1.15;;;1.60;99.90;;;;;;5121975;27;20035;-77
2021/12/02 06:01:33;;;;;;;9.43;3.50;;;1.60;99.90;;;;;;5150900;27;20139;-76
2021/12/02 06:03:58;;;;;;;3.25;1.00;;;1.60;99.90;;;;;;5137465;27;20074;-75
2021/12/02 06:06:26;;;;;;;3.20;0.70;;;1.50;99.90;;;;;;5120202;27;20043;-75
2021/12/02 06:08:52;;;;;;;1.35;0.68;;;1.30;99.90;;;;;;5154273;27;20041;-75
2021/12/02 06:11:18;;;;;;;3.17;0.88;;;1.20;99.90;;;;;;5119646;27;20121;-77
2021/12/02 06:13:46;;;;;;;6.53;2.38;;;1.20;99.90;;;;;;5134991;27;20049;-76
2021/12/02 06:16:12;;;;;;;4.57;1.98;;;1.10;99.90;;;;;;5142242;27;20047;-77
2021/12/02 06:18:37;;;;;;;3.45;1.75;;;1.20;99.90;;;;;;5116415;27;20050;-76
2021/12/02 06:21:03;;;;;;;8.90;2.50;;;1.20;99.90;;;;;;5105550;27;20053;-75
2021/12/02 06:23:29;;;;;;;2.92;2.08;;;1.20;99.90;;;;;;5151877;27;20046;-75
2021/12/02 06:25:55;;;;;;;4.88;1.80;;;1.20;99.90;;;;;;5127746;27;20076;-76
2021/12/02 06:28:20;;;;;;;6.90;3.05;;;1.20;99.90;;;;;;5115381;27;20046;-76
2021/12/02 06:30:46;;;;;;;10.13;4.95;;;1.20;99.90;;;;;;5116179;27;20081;-75
2021/12/02 06:33:13;;;;;;;16.95;9.88;;;1.20;99.90;;;;;;5122604;27;20070;-77
2021/12/02 06:35:40;;;;;;;22.17;15.60;;;1.20;99.90;;;;;;5136774;27;20118;-76
2021/12/02 06:38:06;;;;;;;4.25;1.52;;;1.30;99.90;;;;;;5127088;27;20121;-75
2021/12/02 06:40:34;;;;;;;3.63;0.85;;;1.30;99.90;;;;;;5131952;27;20038;-76
2021/12/02 06:43:00;;;;;;;3.92;1.40;;;1.40;99.90;;;;;;5133734;27;20503;-75
2021/12/02 06:45:26;;;;;;;3.53;1.67;;;1.40;99.90;;;;;;5115805;27;20098;-76
2021/12/02 06:47:57;;;;;;;11.95;7.82;;;1.50;99.90;;;;;;5137287;27;20078;-87
2021/12/02 06:50:22;;;;;;;7.25;4.20;;;1.40;99.90;;;;;;5102653;27;20496;-75
2021/12/02 06:52:50;;;;;;;6.28;2.53;;;1.30;99.90;;;;;;5118317;27;20051;-76
2021/12/02 06:55:17;;;;;;;6.65;1.38;;;1.30;99.90;;;;;;5116520;27;20095;-75
2021/12/02 06:57:43;;;;;;;2.40;1.10;;;1.30;99.90;;;;;;5153466;27;20051;-75
2021/12/02 07:00:13;;;;;;;4.90;1.10;;;1.40;99.90;;;;;;5135700;27;20058;-75
2021/12/02 07:02:39;;;;;;;2.10;1.02;;;1.40;99.90;;;;;;5135634;27;20122;-76
2021/12/02 07:05:08;;;;;;;6.88;2.28;;;1.40;99.90;;;;;;5134553;27;20190;-74
2021/12/02 07:07:37;;;;;;;6.82;3.58;;;1.40;99.90;;;;;;5134555;27;20129;-75
2021/12/02 07:10:05;;;;;;;8.32;4.65;;;1.40;99.90;;;;;;5117207;27;20047;-75
2021/12/02 07:12:33;;;;;;;7.95;3.65;;;1.30;99.90;;;;;;5117946;27;20046;-75
2021/12/02 07:15:06;;;;;;;6.53;2.40;;;1.30;99.90;;;;;;5134092;27;20402;-78
2021/12/02 07:17:32;;;;;;;7.97;2.65;;;1.30;99.90;;;;;;5134368;27;20039;-75
2021/12/02 07:19:59;;;;;;;9.55;5.60;;;1.40;99.90;;;;;;5152389;27;20066;-79
2021/12/02 07:22:25;;;;;;;5.15;3.00;;;1.50;99.90;;;;;;5135151;27;20043;-75
2021/12/02 07:24:50;;;;;;;6.30;3.00;;;1.50;99.90;;;;;;5118789;27;20360;-75
2021/12/02 07:27:16;;;;;;;8.73;2.95;;;1.50;99.90;;;;;;5135441;27;20058;-75
2021/12/02 07:29:42;;;;;;;9.65;3.13;;;1.50;99.90;;;;;;5135602;27;20042;-81
2021/12/02 07:32:10;;;;;;;5.00;2.90;;;1.60;99.90;;;;;;5152953;27;20133;-76
2021/12/02 07:34:40;;;;;;;6.53;3.60;;;1.70;99.90;;;;;;5152721;27;20045;-75
2021/12/02 07:37:06;;;;;;;8.02;4.30;;;1.70;99.90;;;;;;5152298;27;20047;-75
2021/12/02 07:39:32;;;;;;;12.00;5.03;;;1.80;99.90;;;;;;5152352;27;20510;-75
2021/12/02 07:41:58;;;;;;;9.38;4.22;;;1.80;99.90;;;;;;5152593;27;20057;-86
2021/12/02 07:44:24;;;;;;;9.38;3.65;;;1.80;99.90;;;;;;5133484;27;20035;-75
2021/12/02 07:46:50;;;;;;;7.45;4.03;;;1.90;99.90;;;;;;5152647;27;20041;-76
2021/12/02 07:49:16;;;;;;;5.47;2.75;;;1.90;99.90;;;;;;5116960;27;20188;-76
2021/12/02 07:51:44;;;;;;;5.68;1.90;;;1.90;99.90;;;;;;5118391;27;20050;-78
2021/12/02 07:54:12;;;;;;;5.18;1.95;;;2.00;99.90;;;;;;5135264;27;20038;-76
2021/12/02 07:56:38;;;;;;;5.07;1.55;;;2.00;99.90;;;;;;5153482;27;20122;-75
2021/12/02 07:59:05;;;;;;;6.90;1.85;;;2.00;99.90;;;;;;5135291;27;20062;-76
2021/12/02 08:01:35;;;;;;;4.35;1.73;;;2.00;99.90;;;;;;5153068;27;20054;-75
2021/12/02 08:04:01;;;;;;;5.03;1.70;;;2.00;99.90;;;;;;5134451;27;20101;-84
2021/12/02 08:06:27;;;;;;;2.40;1.58;;;2.00;99.90;;;;;;5135303;27;20055;-76
2021/12/02 08:08:54;;;;;;;4.63;1.98;;;1.90;99.90;;;;;;5135395;27;20058;-79
2021/12/02 08:11:19;;;;;;;5.40;2.22;;;1.90;99.90;;;;;;5153569;27;20050;-76
2021/12/02 08:13:50;;;;;;;6.55;2.53;;;1.90;99.90;;;;;;5153541;27;20051;-76
2021/12/02 08:16:18;;;;;;;7.05;2.90;;;1.90;99.90;;;;;;5117945;27;20039;-76
2021/12/02 08:18:44;;;;;;;4.72;2.45;;;1.90;99.90;;;;;;5134647;27;20050;-76
2021/12/02 08:21:10;;;;;;;7.72;2.53;;;2.00;99.90;;;;;;5134930;27;20433;-76
2021/12/02 08:23:35;;;;;;;5.40;2.20;;;1.90;99.90;;;;;;5118287;27;20074;-76
2021/12/02 08:26:01;;;;;;;6.65;2.40;;;1.90;99.90;;;;;;5135074;27;20058;-76
2021/12/02 08:28:28;;;;;;;4.55;2.42;;;1.80;99.90;;;;;;5134489;27;20041;-76
2021/12/02 08:30:54;;;;;;;5.47;2.70;;;1.70;99.90;;;;;;5152826;27;20053;-76
2021/12/02 08:33:20;;;;;;;5.53;2.45;;;1.70;99.90;;;;;;5117353;27;20043;-78
2021/12/02 08:35:46;;;;;;;5.82;2.58;;;1.60;99.90;;;;;;5135382;27;20095;-77
2021/12/02 08:38:15;;;;;;;7.43;2.70;;;1.60;99.90;;;;;;5153157;27;20058;-75
2021/12/02 08:40:42;;;;;;;6.88;2.10;;;1.60;99.90;;;;;;5135032;27;20057;-76
2021/12/02 08:43:11;;;;;;;7.53;2.40;;;1.50;99.90;;;;;;5153192;27;20051;-76
2021/12/02 08:45:38;;;;;;;6.30;2.50;;;1.50;99.90;;;;;;5153391;27;20043;-74
2021/12/02 08:48:06;;;;;;;6.93;2.47;;;1.50;99.90;;;;;;5153282;27;20074;-76
2021/12/02 08:50:32;;;;;;;4.07;2.75;;;1.50;99.90;;;;;;5117856;27;20054;-76
2021/12/02 08:52:59;;;;;;;4.93;2.25;;;1.40;99.90;;;;;;5134733;27;20042;-76
2021/12/02 08:55:26;;;;;;;4.57;2.10;;;1.40;99.90;;;;;;5135292;27;20039;-76
2021/12/02 08:57:53;;;;;;;7.80;3.17;;;1.40;99.90;;;;;;5138164;27;20404;-76
2021/12/02 09:00:22;;;;;;;3.72;2.10;;;1.40;99.90;;;;;;5156752;27;20059;-76
2021/12/02 09:02:48;;;;;;;7.50;2.83;;;1.40;99.90;;;;;;5121933;27;20043;-76
2021/12/02 09:05:15;;;;;;;12.70;3.78;;;1.40;99.90;;;;;;5138098;27;20046;-76
2021/12/02 09:07:40;;;;;;;38.15;12.00;;;1.40;99.90;;;;;;5121925;27;20395;-76
2021/12/02 09:10:08;;;;;;;8.63;3.50;;;1.40;99.90;;;;;;5121466;27;20050;-76
2021/12/02 09:12:34;;;;;;;6.25;2.55;;;1.60;99.90;;;;;;5138396;27;20054;-76
2021/12/02 09:15:00;;;;;;;6.60;3.35;;;1.70;99.90;;;;;;5156815;27;20043;-76
2021/12/02 09:17:26;;;;;;;6.50;3.30;;;1.80;99.90;;;;;;5120579;27;20057;-76
2021/12/02 09:19:52;;;;;;;5.35;2.78;;;1.90;99.90;;;;;;5138664;27;20050;-80
2021/12/02 09:22:18;;;;;;;13.43;5.07;;;1.90;99.90;;;;;;5137802;27;20042;-76
2021/12/02 09:24:44;;;;;;;9.18;3.97;;;2.10;99.90;;;;;;5121620;27;20387;-76
2021/12/02 09:27:10;;;;;;;14.63;6.35;;;2.10;99.90;;;;;;5137857;27;20042;-91
2021/12/02 09:29:36;;;;;;;7.10;2.72;;;2.30;99.90;;;;;;5120973;27;20107;-76
2021/12/02 09:32:03;;;;;;;8.38;2.45;;;2.30;99.90;;;;;;5138128;27;20117;-76
2021/12/02 09:34:28;;;;;;;5.55;2.75;;;2.60;99.90;;;;;;5120174;27;20077;-77
2021/12/02 09:36:56;;;;;;;5.03;2.72;;;2.70;99.90;;;;;;5137995;27;20085;-76
2021/12/02 09:39:28;;;;;;;6.82;2.95;;;2.90;99.90;;;;;;5137366;27;20054;-75
2021/12/02 09:41:54;;;;;;;6.07;3.50;;;3.10;99.90;;;;;;5138141;27;20072;-75
2021/12/02 09:44:19;;;;;;;6.28;2.83;;;3.10;99.90;;;;;;5137938;27;20479;-76
2021/12/02 09:46:45;;;;;;;8.48;3.13;;;3.20;99.90;;;;;;5137954;27;20050;-76
2021/12/02 09:49:12;;;;;;;8.50;5.00;;;3.30;99.90;;;;;;5156334;27;20042;-76
2021/12/02 09:51:59;;;;;;;7.35;5.15;;;3.30;99.90;;;;;;5137530;27;20059;-77
2021/12/02 09:54:38;;;;;;;4.80;2.92;;;3.30;99.90;;;;;;5155391;27;20051;-76
2021/12/02 09:57:06;;;;;;;6.82;3.20;;;3.30;99.90;;;;;;5137215;27;20070;-76
2021/12/02 09:59:47;;;;;;;5.90;2.22;;;3.30;99.90;;;;;;5137548;27;20047;-76
2021/12/02 10:02:17;;;;;;;7.07;2.30;;;3.30;99.90;;;;;;5155550;27;20514;-80
2021/12/02 10:05:06;;;;;;;6.82;3.00;;;3.40;99.90;;;;;;5137988;27;20051;-76
2021/12/02 10:07:42;;;;;;;6.88;3.65;;;3.50;99.90;;;;;;5154034;27;20043;-76
2021/12/02 10:16:21;;;;;;;9.40;3.90;;;3.60;99.90;;;;;;5123461;27;20043;-76
2021/12/02 10:19:10;;;;;;;5.28;2.20;;;3.80;99.90;;;;;;5137466;27;20050;-76
2021/12/02 10:24:20;;;;;;;2.33;0.93;;;4.00;99.90;;;;;;5155750;27;20403;-76
2021/12/02 10:26:56;;;;;;;4.32;1.48;;;4.10;99.90;;;;;;5119930;27;20050;-78
2021/12/02 10:29:23;;;;;;;;;;;4.30;99.90;;;;;;5120093;27;20085;-76
2021/12/02 10:32:05;;;;;;;5.65;0.80;;;4.30;99.90;;;;;;5119591;27;19919;-76
2021/12/02 10:34:31;;;;;;;2.92;0.60;;;4.20;99.90;;;;;;5136475;27;20483;-75
2021/12/02 10:37:10;;;;;;;1.85;0.30;;;3.80;99.90;;;;;;5136910;27;20035;-75
2021/12/02 10:39:35;;;;;;;5.78;0.50;;;3.30;99.90;;;;;;5154156;27;20079;-75
2021/12/02 10:42:09;;;;;;;0.85;0.40;;;2.70;99.90;;;;;;5154514;27;20085;-74
2021/12/02 10:44:39;;;;;;;3.10;0.30;;;2.10;99.90;;;;;;5136208;27;20179;-75
2021/12/02 10:47:08;;;;;;;0.93;0.20;;;1.60;99.90;;;;;;5136495;27;20046;-75
2021/12/02 10:49:48;;;;;;;0.65;0.30;;;1.30;99.90;;;;;;5135799;27;20487;-75
2021/12/02 10:52:33;;;;;;;2.25;0.40;;;1.10;99.90;;;;;;5136643;27;20051;-75
2021/12/02 10:55:09;;;;;;;1.98;0.30;;;1.10;99.90;;;;;;5154908;27;20039;-75
2021/12/02 10:57:45;;;;;;;0.65;0.40;;;1.00;99.90;;;;;;5135569;27;20087;-75
2021/12/02 11:00:15;;;;;;;;;;;1.00;99.90;;;;;;5155619;27;20150;-75
2021/12/02 11:02:53;;;;;;;0.57;0.40;;;1.00;99.90;;;;;;5136004;27;20384;-74
2021/12/02 11:05:30;;;;;;;1.50;1.10;;;1.00;99.90;;;;;;5154923;27;20046;-75
2021/12/02 11:08:01;;;;;;;4.20;2.70;;;1.20;99.90;;;;;;5119478;27;20089;-75
2021/12/02 11:10:33;;;;;;;3.95;2.70;;;1.20;99.90;;;;;;5135803;27;20046;-75
2021/12/02 11:12:59;;;;;;;0.45;0.40;;;1.20;99.90;;;;;;5119010;27;20490;-75
2021/12/02 11:15:28;;;;;;;1.17;0.40;;;1.20;99.90;;;;;;5118645;27;20047;-75
2021/12/02 11:18:01;;;;;;;0.70;0.30;;;1.30;99.90;;;;;;5153743;27;20082;-75
2021/12/02 11:20:42;;;;;;;3.20;2.65;;;1.30;99.90;;;;;;5135299;27;20765;-74
2021/12/02 11:23:12;;;;;;;8.00;3.88;;;1.40;99.90;;;;;;5136220;27;20114;-76
2021/12/02 11:26:00;;;;;;;1.20;0.70;;;1.40;99.90;;;;;;5153783;27;20050;-75
2021/12/02 11:28:31;;;;;;;1.63;0.35;;;1.50;99.90;;;;;;5135548;27;20099;-82
2021/12/02 11:31:06;;;;;;;0.55;0.43;;;1.50;99.90;;;;;;5119120;27;20059;-75
2021/12/02 11:33:35;;;;;;;2.60;0.65;;;1.60;99.90;;;;;;5135187;27;20081;-74
2021/12/02 11:36:01;;;;;;;0.63;0.50;;;1.40;99.90;;;;;;5118362;27;20049;-74
2021/12/02 11:38:28;;;;;;;1.20;0.77;;;1.40;99.90;;;;;;5135153;27;20487;-76
2021/12/02 11:41:02;;;;;;;2.20;1.13;;;1.40;99.90;;;;;;5135722;27;20042;-74
2021/12/02 11:43:30;;;;;;;4.65;1.20;;;1.40;99.90;;;;;;5153905;27;20051;-77
2021/12/02 11:45:57;;;;;;;2.20;1.10;;;1.40;99.90;;;;;;5154043;27;20095;-74
2021/12/02 11:48:26;;;;;;;2.85;0.93;;;1.40;99.90;;;;;;5153478;27;20110;-74
2021/12/02 11:50:54;;;;;;;2.85;0.75;;;1.40;99.90;;;;;;5153579;27;20075;-76
2021/12/02 11:53:21;;;;;;;2.00;0.93;;;1.50;99.90;;;;;;5135461;27;20050;-74
2021/12/02 11:55:50;;;;;;;3.42;1.90;;;1.60;99.90;;;;;;5153354;27;20154;-75
2021/12/02 11:58:15;;;;;;;1.33;1.08;;;1.70;99.90;;;;;;5135191;27;20107;-75
2021/12/02 12:00:44;;;;;;;3.42;1.35;;;1.80;99.90;;;;;;5153065;27;20084;-74
2021/12/02 12:03:13;;;;;;;6.40;3.63;;;1.90;99.90;;;;;;5135373;27;20042;-74
2021/12/02 12:05:40;;;;;;;6.55;4.38;;;2.00;99.90;;;;;;5153303;27;20042;-73
2021/12/02 12:08:07;;;;;;;5.10;2.15;;;2.20;99.90;;;;;;5135468;27;20042;-74
2021/12/02 12:10:39;;;;;;;2.28;1.50;;;2.30;99.90;;;;;;5153524;27;20039;-74
2021/12/02 12:13:21;;;;;;;2.42;1.70;;;2.40;99.90;;;;;;5153769;27;20046;-74
2021/12/02 12:15:52;;;;;;;2.47;1.75;;;2.40;99.90;;;;;;5134783;27;20116;-77
2021/12/02 12:18:40;;;;;;;3.13;1.65;;;2.40;99.90;;;;;;5133917;27;20039;-79
2021/12/02 12:21:12;;;;;;;3.15;1.80;;;2.40;99.90;;;;;;5134368;27;20452;-76
2021/12/02 12:23:45;;;;;;;3.40;2.90;;;2.30;99.90;;;;;;5134928;27;20518;-78
2021/12/02 12:26:30;;;;;;;6.03;2.50;;;2.30;99.90;;;;;;5153710;27;20039;-75
2021/12/02 12:29:09;;;;;;;2.35;1.40;;;2.30;99.90;;;;;;5153784;27;20080;-75
2021/12/02 12:40:11;;;;;;;4.45;1.10;;;2.10;99.90;;;;;;5139446;27;20047;-75
2021/12/02 12:42:47;;;;;;;2.22;1.02;;;2.10;99.90;;;;;;5138722;27;20038;-77
2021/12/02 12:45:37;;;;;;;3.13;0.85;;;2.00;99.90;;;;;;5122192;27;20102;-75
2021/12/02 12:48:23;;;;;;;1.83;1.00;;;2.20;99.90;;;;;;5157972;27;20049;-76
2021/12/02 12:50:49;;;;;;;2.65;1.13;;;2.30;99.90;;;;;;5156723;27;20046;-75
2021/12/02 12:53:19;;;;;;;2.83;1.13;;;2.30;99.90;;;;;;5139241;27;20439;-77
2021/12/02 12:55:54;;;;;;;4.60;1.83;;;2.50;99.90;;;;;;5138702;27;20442;-75
2021/12/02 12:58:21;;;;;;;3.95;1.33;;;2.70;99.90;;;;;;5138189;27;20054;-75
2021/12/02 13:00:49;;;;;;;5.15;1.30;;;2.90;99.90;;;;;;5138541;27;20055;-76
2021/12/02 13:03:26;;;;;;;2.28;0.90;;;2.90;99.90;;;;;;5138946;27;20045;-77
2021/12/02 13:06:11;;;;;;;1.90;1.17;;;2.80;99.90;;;;;;5138689;27;20399;-80
2021/12/02 13:08:58;;;;;;;3.88;1.30;;;2.70;99.90;;;;;;5157006;27;20042;-79
2021/12/02 13:11:25;;;;;;;;;;;2.70;99.90;;;;;;5157514;27;20042;-75
2021/12/02 13:13:55;;;;;;;1.80;1.20;;;2.70;99.90;;;;;;5138347;27;20005;-75
2021/12/02 13:16:21;;;;;;;1.40;0.98;;;2.60;99.90;;;;;;5138480;27;20089;-75
2021/12/02 13:18:51;;;;;;;1.75;1.10;;;2.50;99.90;;;;;;5137689;27;20078;-75
2021/12/02 13:21:31;;;;;;;3.80;1.05;;;2.40;99.90;;;;;;5138916;27;20078;-76
2021/12/02 13:24:09;;;;;;;1.45;0.98;;;2.30;99.90;;;;;;5137840;27;20051;-79
2021/12/02 13:26:43;;;;;;;1.70;1.02;;;2.10;99.90;;;;;;5121317;27;20046;-75
2021/12/02 13:29:17;;;;;;;2.10;1.50;;;1.90;99.90;;;;;;5156319;27;20042;-76
2021/12/02 13:31:55;;;;;;;1.85;1.70;;;1.90;99.90;;;;;;5121016;27;20050;-76
2021/12/02 13:34:23;;;;;;;0.80;0.73;;;1.70;99.90;;;;;;5156805;27;20126;-75
2021/12/02 13:37:08;;;;;;;2.80;2.50;;;1.60;99.90;;;;;;5156196;27;20042;-76
2021/12/02 13:39:36;;;;;;;2.35;1.85;;;1.50;99.90;;;;;;5134489;27;20082;-75
2021/12/02 13:42:08;;;;;;;3.38;2.00;;;1.50;99.90;;;;;;5116643;27;20476;-75